Danby Corners, Vermont
Current Conditions -  °F | °C
As of 1:35 PM on Thursday 23 Oct 2014 (Local Time) from KRUT Reporting Station
Overcast Overcast  
Wind Chill: 37°   Ceiling: 500
Heat Index: 43°   Visibility: 8mi
Dew Point: 41°   Wind: 12mph
Humidity: 93%   Direction: 340°NNW
Pressure: 29.83"   Gusts: 16mph
Location:  43.3492°N, 72.9643°W
Report Text: KRUT 231735Z 34010G14KT 8SM BKN005 OVC013 06/05 A2983 RMK AO1
Loading
Personal Weather Stations






























Interactive Weather Map
Tropical Storm Tracking
New forecast layout! Learn more

10-Day Weather Forecast

Advertisements
Track Severe Weather on mobile